createdAt,value
2022-07-29T00:02:00.617Z,101715.16
2022-07-29T00:04:30.617Z,101712.16
2022-07-29T00:06:59.266Z,101691.50
2022-07-29T00:09:30.589Z,101701.16
2022-07-29T00:12:02.112Z,101701.06
2022-07-29T00:14:30.861Z,101701.47
2022-07-29T00:17:03.009Z,101703.63
2022-07-29T00:19:31.299Z,101697.75
2022-07-29T00:22:01.563Z,101694.38
2022-07-29T00:24:29.831Z,101694.88
2022-07-29T00:26:58.833Z,101688.03
2022-07-29T00:29:34.169Z,101687.16
2022-07-29T00:32:12.047Z,101689.13
2022-07-29T00:35:05.828Z,101686.59
2022-07-29T00:37:34.908Z,101683.75
2022-07-29T00:40:03.156Z,101683.34
2022-07-29T00:42:34.105Z,101676.81
2022-07-29T00:45:02.227Z,101677.22
2022-07-29T00:47:34.253Z,101677.72
2022-07-29T00:50:03.904Z,101654.47
2022-07-29T00:52:35.457Z,101683.34
2022-07-29T00:55:08.649Z,101656.88
2022-07-29T00:57:38.307Z,101668.50
2022-07-29T01:00:08.784Z,101668.75
2022-07-29T01:02:40.606Z,101698.63
2022-07-29T01:05:14.557Z,101667.00
2022-07-29T01:07:43.969Z,101664.78
2022-07-29T01:10:16.898Z,101672.44
2022-07-29T01:12:52.203Z,101666.31
2022-07-29T01:15:20.670Z,101662.16
2022-07-29T01:17:59.932Z,101668.50
2022-07-29T01:20:42.214Z,101662.84
2022-07-29T01:23:35.062Z,101667.75
2022-07-29T01:26:23.574Z,101654.22
2022-07-29T01:29:10.959Z,101623.38
2022-07-29T01:31:58.757Z,101662.16
2022-07-29T01:34:33.556Z,101663.16
2022-07-29T01:37:12.218Z,101656.91
2022-07-29T01:39:43.748Z,101654.16
2022-07-29T01:42:20.224Z,101657.03
2022-07-29T01:44:56.405Z,101649.78
2022-07-29T01:47:35.808Z,101646.22
2022-07-29T01:50:12.564Z,101653.34
2022-07-29T01:52:48.746Z,101515.81
2022-07-29T01:55:19.869Z,101619.19
2022-07-29T01:57:52.367Z,101647.75
2022-07-29T02:00:24.229Z,101644.94
2022-07-29T02:02:55.266Z,101643.03
2022-07-29T02:05:27.071Z,101638.72
2022-07-29T02:07:57.834Z,101644.03
2022-07-29T02:10:29.879Z,101633.59
2022-07-29T02:13:00.456Z,101641.47
2022-07-29T02:15:49.972Z,101641.66
2022-07-29T02:18:22.684Z,101642.50
2022-07-29T02:21:00.570Z,101640.31
2022-07-29T02:23:32.894Z,101634.19
2022-07-29T02:26:22.766Z,101628.03
2022-07-29T02:28:54.464Z,101638.72
2022-07-29T02:31:31.243Z,101613.56
2022-07-29T02:34:02.409Z,101633.78
2022-07-29T02:36:33.300Z,101631.47
2022-07-29T02:39:04.866Z,101623.81
2022-07-29T02:41:39.611Z,101601.97
2022-07-29T02:44:17.397Z,101620.47
2022-07-29T02:46:52.255Z,101624.31
2022-07-29T02:49:33.375Z,101626.59
2022-07-29T02:52:09.205Z,101633.88
2022-07-29T02:54:43.742Z,101631.44
2022-07-29T02:57:21.600Z,101630.66
2022-07-29T02:59:57.056Z,101626.06
2022-07-29T03:02:29.301Z,101624.47
2022-07-29T03:05:02.075Z,101624.06
2022-07-29T03:07:32.048Z,101629.63
2022-07-29T03:10:04.447Z,101622.03
2022-07-29T03:12:37.494Z,101622.78
2022-07-29T03:15:10.342Z,101629.22
2022-07-29T03:17:41.882Z,101623.19
2022-07-29T03:20:12.322Z,101621.34
2022-07-29T03:22:45.042Z,101612.69
2022-07-29T03:25:17.976Z,101598.75
2022-07-29T03:27:48.222Z,101615.06
2022-07-29T03:30:21.879Z,101614.47
2022-07-29T03:32:53.511Z,101617.34
2022-07-29T03:35:22.586Z,101616.28
2022-07-29T03:37:53.651Z,101611.53
2022-07-29T03:40:33.246Z,101533.53
2022-07-29T03:43:03.633Z,101619.31
2022-07-29T03:45:34.273Z,101607.63
2022-07-29T03:48:13.245Z,101607.63
2022-07-29T03:50:45.385Z,101613.38
2022-07-29T03:53:16.643Z,101585.97
2022-07-29T03:55:57.324Z,101606.53
2022-07-29T03:58:33.106Z,101613.88
2022-07-29T04:01:02.069Z,101615.84
2022-07-29T04:03:38.048Z,101610.59
2022-07-29T04:06:09.066Z,101494.88
2022-07-29T04:08:40.376Z,101613.63
2022-07-29T04:11:09.260Z,101611.25
2022-07-29T04:13:38.654Z,101607.97
2022-07-29T04:16:07.115Z,101616.00
2022-07-29T04:18:35.733Z,101616.97
2022-07-29T04:21:08.591Z,101616.34
2022-07-29T04:23:47.947Z,101625.06
2022-07-29T04:26:22.412Z,101629.38
2022-07-29T04:28:52.773Z,101607.88
2022-07-29T04:31:25.554Z,101613.88
2022-07-29T04:33:56.870Z,101618.28
2022-07-29T04:36:30.191Z,101614.63
2022-07-29T04:38:59.276Z,101621.66
2022-07-29T04:41:32.695Z,101614.63
2022-07-29T04:44:07.537Z,101617.94
2022-07-29T04:46:37.543Z,101594.69
2022-07-29T04:49:06.349Z,101616.06
2022-07-29T04:51:36.016Z,101621.47
2022-07-29T04:54:04.639Z,101615.16
2022-07-29T04:56:33.474Z,101603.47
2022-07-29T04:59:01.925Z,101610.19
2022-07-29T05:01:29.957Z,101606.19
2022-07-29T05:04:00.493Z,101611.53
2022-07-29T05:06:29.382Z,101601.91
2022-07-29T05:09:01.800Z,101607.47
2022-07-29T05:11:33.018Z,101615.69
2022-07-29T05:14:01.114Z,101610.59
2022-07-29T05:16:30.599Z,101616.69
2022-07-29T05:18:59.376Z,101608.72
2022-07-29T05:21:27.829Z,101605.25
2022-07-29T05:23:56.034Z,101603.22
2022-07-29T05:26:28.658Z,101610.94
2022-07-29T05:28:58.075Z,101607.31
2022-07-29T05:31:30.590Z,101608.22
2022-07-29T05:33:59.144Z,101616.69
2022-07-29T05:36:27.560Z,101611.69
2022-07-29T05:38:56.284Z,101617.72
2022-07-29T05:41:24.655Z,101610.50
2022-07-29T05:43:55.716Z,101618.63
2022-07-29T05:46:24.420Z,101625.88
2022-07-29T05:48:53.317Z,101623.09
2022-07-29T05:51:22.841Z,101625.41
2022-07-29T05:53:50.971Z,101623.81
2022-07-29T05:56:20.117Z,101626.75
2022-07-29T05:58:53.443Z,101597.75
2022-07-29T06:01:24.336Z,101628.16
2022-07-29T06:03:55.524Z,101632.53
2022-07-29T06:06:26.225Z,101626.81
2022-07-29T06:08:55.005Z,101635.44
2022-07-29T06:11:28.326Z,101628.75
2022-07-29T06:13:56.780Z,101638.00
2022-07-29T06:16:30.330Z,101634.19
2022-07-29T06:19:01.938Z,101631.91
2022-07-29T06:21:32.693Z,101636.56
2022-07-29T06:24:01.382Z,101634.06
2022-07-29T06:26:32.637Z,101632.72
2022-07-29T06:29:04.781Z,101636.47
2022-07-29T06:31:37.641Z,101646.25
2022-07-29T06:34:06.116Z,101640.91
2022-07-29T06:36:37.904Z,101641.53
2022-07-29T06:39:07.734Z,101651.94
2022-07-29T06:41:38.143Z,101638.34
2022-07-29T06:44:11.711Z,101639.09
2022-07-29T06:46:44.605Z,101616.03
2022-07-29T06:49:15.385Z,101644.25
2022-07-29T06:51:44.902Z,101645.53
2022-07-29T06:54:15.762Z,101642.91
2022-07-29T06:56:44.530Z,101643.50
2022-07-29T06:59:14.339Z,101648.78
2022-07-29T07:01:47.397Z,101643.13
2022-07-29T07:04:16.976Z,101635.28
2022-07-29T07:06:51.658Z,101637.81
2022-07-29T07:09:19.671Z,101648.56
2022-07-29T07:11:52.969Z,101647.72
2022-07-29T07:14:22.260Z,101646.19
2022-07-29T07:16:52.938Z,101650.22
2022-07-29T07:19:23.185Z,101642.91
2022-07-29T07:21:54.801Z,101639.38
2022-07-29T07:24:26.365Z,101588.66
2022-07-29T07:26:57.806Z,101668.28
2022-07-29T07:29:27.343Z,101671.66
2022-07-29T07:32:00.749Z,101665.44
2022-07-29T07:34:32.115Z,101666.28
2022-07-29T07:37:04.438Z,101667.78
2022-07-29T07:39:33.090Z,101529.69
2022-07-29T07:42:01.209Z,101667.94
2022-07-29T07:44:30.729Z,101662.84
2022-07-29T07:47:03.929Z,101649.94
2022-07-29T07:49:43.936Z,101657.25
2022-07-29T07:52:13.553Z,101650.50
2022-07-29T07:54:43.983Z,101667.13
2022-07-29T07:57:13.309Z,101655.66
2022-07-29T07:59:43.758Z,101665.91
2022-07-29T08:02:16.432Z,101648.88
2022-07-29T08:04:44.863Z,101660.44
2022-07-29T08:07:15.921Z,101656.56
2022-07-29T08:09:44.560Z,101654.88
2022-07-29T08:12:14.183Z,101654.22
2022-07-29T08:14:47.237Z,101659.50
2022-07-29T08:17:16.729Z,101657.31
2022-07-29T08:19:45.413Z,101645.69
2022-07-29T08:22:16.681Z,101664.31
2022-07-29T08:24:45.126Z,101661.00
2022-07-29T08:27:41.931Z,101658.34
2022-07-29T08:30:07.769Z,101662.38
2022-07-29T08:32:56.208Z,101657.09
2022-07-29T08:35:26.005Z,101662.38
2022-07-29T08:37:57.853Z,101661.28
2022-07-29T08:40:30.494Z,101655.91
2022-07-29T08:43:07.926Z,101657.72
2022-07-29T08:45:48.119Z,101652.97
2022-07-29T08:48:23.718Z,101624.31
2022-07-29T08:50:55.290Z,101651.28
2022-07-29T08:53:27.414Z,101657.88
2022-07-29T08:55:57.613Z,101673.81
2022-07-29T08:58:27.576Z,101669.09
2022-07-29T09:00:58.388Z,101674.38
2022-07-29T09:03:34.193Z,101688.88
2022-07-29T09:06:03.032Z,101674.94
2022-07-29T09:08:35.866Z,101668.09
2022-07-29T09:11:05.534Z,101433.56
2022-07-29T09:13:35.385Z,101663.78
2022-07-29T09:16:12.276Z,101656.06
2022-07-29T09:18:46.476Z,101655.25
2022-07-29T15:05:44.803Z,101594.47
2022-07-29T15:08:17.406Z,101601.34
2022-07-29T15:10:46.169Z,101580.09
2022-07-29T15:13:14.590Z,101602.00
2022-07-29T15:15:46.521Z,101599.31
2022-07-29T15:18:25.492Z,101608.69
2022-07-29T15:20:58.390Z,101589.88
2022-07-29T15:23:29.045Z,101609.84
2022-07-29T15:25:57.485Z,101608.81
2022-07-29T15:28:28.935Z,101610.69
2022-07-29T15:31:01.357Z,101612.44
2022-07-29T15:33:35.492Z,101609.53
2022-07-29T15:36:06.272Z,101612.22
2022-07-29T15:38:36.318Z,101610.84
2022-07-29T15:41:16.549Z,101593.97
2022-07-29T15:43:47.826Z,101597.19
2022-07-29T15:46:34.458Z,101617.97
2022-07-29T15:49:05.007Z,101611.78
2022-07-29T15:51:37.910Z,101606.81
2022-07-29T15:54:06.715Z,101605.06
2022-07-29T15:56:36.212Z,101607.13
2022-07-29T15:59:05.268Z,101603.09
2022-07-29T16:01:42.516Z,101581.25
2022-07-29T16:04:12.521Z,101604.94
2022-07-29T16:06:42.164Z,101600.81
2022-07-29T16:09:11.109Z,101604.00
2022-07-29T16:11:42.551Z,101604.63
2022-07-29T16:14:14.280Z,101606.06
2022-07-29T16:16:42.822Z,101608.78
2022-07-29T16:19:11.542Z,101609.47
2022-07-29T16:21:40.079Z,101616.78
2022-07-29T16:24:14.800Z,101615.63
2022-07-29T16:26:43.288Z,101615.66
2022-07-29T16:29:11.346Z,101620.13
2022-07-29T16:31:39.770Z,101616.06
2022-07-29T16:34:08.125Z,101618.13
2022-07-29T16:36:39.439Z,101622.31
2022-07-29T16:39:10.967Z,101618.38
2022-07-29T16:41:44.616Z,101624.00
2022-07-29T16:44:16.242Z,101625.19
2022-07-29T16:46:49.613Z,101623.06
2022-07-29T16:49:19.347Z,101620.25
2022-07-29T16:51:49.343Z,101625.59
2022-07-29T16:54:17.729Z,101598.06
2022-07-29T16:56:49.500Z,101623.00
2022-07-29T16:59:17.682Z,101615.69
2022-07-29T17:01:46.079Z,101635.16
2022-07-29T17:04:15.289Z,101626.66
2022-07-29T17:06:43.800Z,101634.44
2022-07-29T17:09:18.126Z,101631.09
2022-07-29T17:11:52.531Z,101627.75
2022-07-29T17:14:25.822Z,101631.81
2022-07-29T17:17:01.109Z,101625.34
2022-07-29T17:19:42.088Z,101635.84
2022-07-29T17:22:17.237Z,101638.78
2022-07-29T17:24:49.413Z,101633.88
2022-07-29T17:27:18.964Z,101598.94
2022-07-29T17:29:55.059Z,101622.56
2022-07-29T17:32:23.423Z,101636.88
2022-07-29T17:35:00.706Z,101640.19
2022-07-29T17:37:33.966Z,101626.84
2022-07-29T17:40:02.401Z,101632.91
2022-07-29T17:42:31.457Z,101634.97
2022-07-29T17:45:07.209Z,101636.22
2022-07-29T17:47:38.340Z,101638.59
2022-07-29T17:50:09.925Z,101637.75
2022-07-29T17:52:39.229Z,101645.25
2022-07-29T17:55:10.979Z,101640.66
2022-07-29T17:57:47.629Z,101643.28
2022-07-29T18:00:19.655Z,101647.06
2022-07-29T18:02:50.093Z,101648.47
2022-07-29T18:05:21.276Z,101652.88
2022-07-29T18:07:50.292Z,101648.69
2022-07-29T18:10:18.373Z,101647.25
2022-07-29T18:12:47.258Z,101648.16
2022-07-29T18:15:15.619Z,101650.91
2022-07-29T18:17:56.483Z,101640.41
2022-07-29T18:20:26.904Z,101645.38
2022-07-29T18:22:59.433Z,101649.72
2022-07-29T18:25:31.109Z,101646.09
2022-07-29T18:28:01.965Z,101642.34
2022-07-29T18:30:37.494Z,101624.28
2022-07-29T18:33:24.299Z,101639.13
2022-07-29T18:36:11.195Z,101646.88
2022-07-29T18:38:44.890Z,101617.16
2022-07-29T18:41:20.345Z,101647.72
2022-07-29T18:43:49.816Z,101648.03
2022-07-29T18:46:18.458Z,101654.75
2022-07-29T18:48:50.620Z,101648.28
2022-07-29T18:51:19.325Z,101649.56
2022-07-29T18:53:47.814Z,101659.19
2022-07-29T18:56:15.941Z,101657.22
2022-07-29T18:58:44.598Z,101657.38
2022-07-29T19:01:16.635Z,101660.16
2022-07-29T19:03:45.406Z,101664.38
2022-07-29T19:06:18.509Z,101666.94
2022-07-29T19:08:49.189Z,101667.28
2022-07-29T19:11:18.649Z,101677.31
2022-07-29T19:13:47.249Z,101664.31
2022-07-29T19:16:16.956Z,101680.69
2022-07-29T19:18:47.367Z,101687.56
2022-07-29T19:21:17.373Z,101691.16
2022-07-29T19:24:05.964Z,101697.53
2022-07-29T19:26:36.495Z,101704.63
2022-07-29T19:29:07.567Z,101701.03
2022-07-29T19:31:36.039Z,101695.94
2022-07-29T19:34:07.096Z,101714.72
2022-07-29T19:36:39.587Z,101705.81
2022-07-29T19:39:11.083Z,101721.19
2022-07-29T19:41:39.165Z,101717.34
2022-07-29T19:44:11.398Z,101726.25
2022-07-29T19:46:42.144Z,101726.63
2022-07-29T19:49:11.534Z,101735.41
2022-07-29T19:51:42.919Z,101726.97
2022-07-29T19:54:11.886Z,101738.03
2022-07-29T19:56:44.909Z,101758.81
2022-07-29T19:59:16.675Z,101752.34
2022-07-29T20:01:45.072Z,101747.75
2022-07-29T20:04:13.398Z,101646.22
2022-07-29T20:06:45.450Z,101754.56
2022-07-29T20:09:17.007Z,101757.31
2022-07-29T20:11:49.287Z,101757.59
2022-07-29T20:14:17.777Z,101757.59
2022-07-29T20:16:46.467Z,101762.47
2022-07-29T20:19:20.324Z,101758.31
2022-07-29T20:21:50.761Z,101770.50
2022-07-29T20:24:19.323Z,101756.69
2022-07-29T20:26:50.827Z,101757.38
2022-07-29T20:29:18.959Z,101760.50
2022-07-29T20:31:53.507Z,101768.44
2022-07-29T20:34:25.203Z,101765.88
2022-07-29T20:37:01.606Z,101766.81
2022-07-29T20:39:30.457Z,101707.91
2022-07-29T20:42:00.963Z,101759.75
2022-07-29T20:44:29.582Z,101760.38
2022-07-29T20:47:03.790Z,101761.13
2022-07-29T20:49:36.587Z,101757.75
2022-07-29T20:52:19.686Z,101752.91
2022-07-29T20:54:48.180Z,101752.47
2022-07-29T20:57:16.693Z,101755.63
2022-07-29T20:59:45.904Z,101750.16
2022-07-29T21:02:17.790Z,101754.78
2022-07-29T22:03:20.816Z,101771.19
2022-07-29T22:06:01.108Z,101767.09
2022-07-29T22:08:32.144Z,101769.09
2022-07-29T22:11:01.755Z,101770.88
2022-07-29T22:13:31.342Z,101772.44
2022-07-29T22:16:00.381Z,101771.72
2022-07-29T22:18:35.167Z,101765.69
2022-07-29T22:21:04.097Z,101764.63
2022-07-29T22:23:33.041Z,101762.53
2022-07-29T22:26:03.881Z,101759.03
2022-07-29T22:28:32.201Z,101765.94
2022-07-29T22:31:00.792Z,101784.94
2022-07-29T22:33:31.379Z,101783.50
2022-07-29T22:36:01.978Z,101795.19
2022-07-29T22:38:30.621Z,101797.22
2022-07-29T22:41:01.374Z,101795.94
2022-07-29T22:43:32.121Z,101798.28
2022-07-29T22:46:02.415Z,101795.78
2022-07-29T22:48:32.083Z,101804.09
2022-07-29T22:51:07.261Z,101809.81
2022-07-29T22:53:39.961Z,101809.22
2022-07-29T22:56:11.335Z,101801.63
2022-07-29T22:58:42.021Z,101808.38
2022-07-29T23:01:12.799Z,101808.16
2022-07-29T23:03:51.113Z,101810.13
2022-07-29T23:06:22.538Z,101816.91
2022-07-29T23:08:52.561Z,101819.00
2022-07-29T23:11:22.170Z,101811.06
2022-07-29T23:13:57.974Z,101813.41
2022-07-29T23:16:30.859Z,101809.63
2022-07-29T23:18:59.979Z,101804.22
2022-07-29T23:21:32.719Z,101800.63
2022-07-29T23:24:05.176Z,101804.09
2022-07-29T23:26:37.222Z,101809.78
2022-07-29T23:29:07.564Z,101796.25
2022-07-29T23:31:41.790Z,101798.63
2022-07-29T23:34:13.073Z,101797.28
2022-07-29T23:36:43.335Z,101794.56
2022-07-29T23:39:13.310Z,101793.91
2022-07-29T23:41:44.482Z,101770.63
2022-07-29T23:44:12.485Z,101797.63
2022-07-29T23:46:44.649Z,101796.34
2022-07-29T23:49:14.057Z,101791.84
2022-07-29T23:51:47.001Z,101788.47
2022-07-29T23:54:17.960Z,101787.13
2022-07-29T23:56:46.845Z,101779.91
2022-07-29T23:59:14.823Z,101796.06
